EGXT

RAF Wittering Airport

Wittering, United Kingdom
METAR EGXT 231550Z 09011KT 9999 BKN031 03/M03 Q1020 BLU
Observed Flight Rules
Feb-23 @ 15:50 UTC (42 minutes ago) Visual Flight Rules
Wind Visibility Clouds
90° at 11 knots 10,000+ meters
  • Broken at 3,100' AGL
Temperatures Readings
Current 3°C / 37°F
Dewpoint -3°C / 27°F
Humidity 65%
Altimeter 30.12" Hg
Pressure 1020 hPa
Elevation 84
METAR EGXT 231550Z 09011KT 9999 BKN031 03/M03 Q1020 BLU
Observed Flight Rules
Feb-23 @ 15:50 UTC
(42 minutes ago)
VFR
Wind Visibility
90° at 11 knots 10,000+ meters
Clouds
  • Broken at 3,100' AGL
Temperature Dewpoint
3°C / 37°F -3°C / 27°F
Humidity Altimeter Pressure
65% 30.12" Hg 1020 hPa